Time;durP1;ratioP1;P1;durP2;ratioP2;P2;SDS_P1;SDS_P2;PMS_P1;PMS_P2;Temp;Humidity;BMP_temperature;BMP_pressure;BME280_temperature;BME280_humidity;BME280_pressure;Samples;Min_cycle;Max_cycle;Signal;HPM_P1;HPM_P2
2022/12/17 13:06:42;;;;;;;;;57.50;44.75;;;;;1.99;62.78;101819.66;5041086;28;45427;-60
2022/12/17 13:09:15;;;;;;;;;48.00;38.50;;;;;2.06;61.96;101806.44;5056468;28;45367;-60
2022/12/17 13:11:58;;;;;;;;;59.50;45.50;;;;;1.72;61.96;101757.84;5056016;28;46500;-58
2022/12/17 13:14:29;;;;;;;;;48.75;41.75;;;;;1.99;62.07;101803.41;5054645;28;45351;-60
2022/12/17 13:16:58;;;;;;;;;43.00;39.75;;;;;1.97;62.90;101810.78;5037566;28;45733;-61
2022/12/17 13:19:32;;;;;;;;;50.50;39.25;;;;;1.32;62.26;101686.25;5055158;28;45423;-60
2022/12/17 13:22:10;;;;;;;;;48.00;39.50;;;;;1.97;62.69;101783.69;5055972;28;46522;-60
2022/12/17 13:24:36;;;;;;;;;52.75;43.50;;;;;1.95;62.12;101796.53;5055829;28;45358;-61
2022/12/17 13:27:02;;;;;;;;;53.50;40.00;;;;;1.86;62.38;101792.72;5056139;28;45383;-58
2022/12/17 13:29:31;;;;;;;;;50.75;41.00;;;;;1.83;62.62;101802.97;5054562;28;45486;-60
2022/12/17 13:32:00;;;;;;;;;54.25;45.50;;;;;1.83;62.64;101802.97;5024316;27;47191;-59
2022/12/17 13:34:55;;;;;;;;;53.50;39.00;;;;;1.66;63.02;101774.59;5021100;27;45768;-60
2022/12/17 13:37:44;;;;;;;;;56.00;44.75;;;;;1.61;62.90;101772.28;5059877;28;45484;-62
2022/12/17 13:40:26;;;;;;;;;55.00;45.75;;;;;1.71;63.03;101807.56;5030413;28;45822;-60
2022/12/17 13:42:51;;;;;;;;;48.75;43.25;;;;;1.57;63.25;101800.56;5034741;28;46715;-60
2022/12/17 13:45:20;;;;;;;;;56.75;43.25;;;;;1.52;62.98;101805.50;5048734;28;45690;-59
2022/12/17 13:47:55;;;;;;;;;43.25;37.50;;;;;1.44;63.39;101795.31;5001060;28;45616;-60
2022/12/17 13:50:22;;;;;;;;;59.25;42.50;;;;;1.45;63.29;101799.75;5032146;28;45633;-60
2022/12/17 13:52:48;;;;;;;;;60.25;42.00;;;;;1.38;63.44;101795.81;5030249;28;45903;-58
2022/12/17 13:55:24;;;;;;;;;55.25;44.50;;;;;1.34;63.70;101795.22;5031028;28;45447;-58
2022/12/17 13:57:50;;;;;;;;;53.50;42.75;;;;;1.27;63.73;101792.13;5035250;28;45788;-57
2022/12/17 14:00:24;;;;;;;;;54.50;44.25;;;;;1.36;63.90;101801.34;5029823;28;45726;-58
2022/12/17 14:02:50;;;;;;;;;46.50;40.00;;;;;1.04;63.67;101753.44;5029492;28;46284;-54
2022/12/17 14:05:22;;;;;;;;;52.25;44.75;;;;;1.28;63.92;101804.66;5039004;28;45738;-58
2022/12/17 14:07:47;;;;;;;;;45.00;39.50;;;;;1.31;64.25;101800.84;5033452;28;45799;-60
2022/12/17 14:10:16;;;;;;;;;50.00;39.50;;;;;1.35;64.00;101799.63;5033119;28;45883;-56
2022/12/17 14:12:42;;;;;;;;;52.50;42.50;;;;;1.37;64.25;101803.06;5012679;28;45792;-59
2022/12/17 14:15:27;;;;;;;;;47.50;42.00;;;;;1.33;64.14;101805.16;5031272;28;45429;-54
2022/12/17 14:17:52;;;;;;;;;49.50;41.25;;;;;1.34;63.87;101803.31;5013534;28;46044;-58
2022/12/17 14:20:23;;;;;;;;;44.50;35.75;;;;;1.35;64.00;101808.59;5030016;28;45516;-56
2022/12/17 14:22:49;;;;;;;;;44.00;40.75;;;;;1.37;64.24;101808.47;5049508;28;46632;-60
2022/12/17 14:25:20;;;;;;;;;55.00;39.75;;;;;1.34;63.84;101814.16;5033055;28;45394;-55
2022/12/17 14:27:53;;;;;;;;;49.25;41.75;;;;;0.96;64.08;101759.44;5047384;28;45562;-59
2022/12/17 14:30:24;;;;;;;;;47.50;42.00;;;;;1.32;64.11;101814.25;5031498;28;45781;-60
2022/12/17 14:32:49;;;;;;;;;52.50;43.75;;;;;1.28;64.25;101812.78;5037206;27;45846;-54
2022/12/17 14:35:22;;;;;;;;;61.75;44.75;;;;;1.08;64.24;101785.50;5049675;28;45672;-54
2022/12/17 14:37:48;;;;;;;;;64.25;42.75;;;;;0.95;63.68;101763.13;5050934;28;45418;-57
2022/12/17 14:40:13;;;;;;;;;36.00;33.25;;;;;1.18;63.46;101809.97;5051176;28;45562;-59
2022/12/17 14:42:39;;;;;;;;;49.25;39.75;;;;;1.17;63.93;101820.94;5048843;28;46523;-59
2022/12/17 14:45:19;;;;;;;;;53.25;42.00;;;;;0.87;63.79;101766.47;5049303;28;45408;-54
2022/12/17 14:47:58;;;;;;;;;39.25;34.50;;;;;1.17;63.71;101824.47;5020298;28;45407;-56
2022/12/17 14:50:26;;;;;;;;;56.00;40.00;;;;;1.19;63.73;101827.91;5029462;28;45410;-56
2022/12/17 14:52:53;;;;;;;;;47.00;39.00;;;;;1.13;63.87;101814.03;5030402;28;45924;-57
2022/12/17 14:55:36;;;;;;;;;46.75;42.00;;;;;0.98;63.91;101775.56;5012306;28;45561;-58
2022/12/17 14:58:10;;;;;;;;;46.50;40.00;;;;;1.19;63.71;101800.84;5039652;28;45355;-58
2022/12/17 15:00:38;;;;;;;;;44.50;34.00;;;;;1.19;62.80;101802.72;5048137;28;45427;-59
2022/12/17 15:03:03;;;;;;;;;39.50;37.25;;;;;1.18;62.63;101809.13;5031191;28;45529;-58
2022/12/17 15:05:29;;;;;;;;;38.75;35.50;;;;;1.13;62.48;101798.69;5049079;28;45614;-59
2022/12/17 15:07:54;;;;;;;;;38.25;36.00;;;;;1.07;62.50;101796.47;5036176;28;45419;-64
2022/12/17 15:10:20;;;;;;;;;41.25;34.25;;;;;1.00;62.73;101790.69;5053699;28;45376;-59
2022/12/17 15:12:47;;;;;;;;;39.00;32.75;;;;;0.83;62.74;101761.41;5011545;28;45990;-59
2022/12/17 15:15:14;;;;;;;;;40.75;34.50;;;;;1.08;62.63;101809.00;5049280;28;45821;-61
2022/12/17 15:17:39;;;;;;;;;40.50;34.25;;;;;1.05;62.67;101803.81;5049491;28;45486;-54
2022/12/17 15:20:05;;;;;;;;;40.50;34.75;;;;;1.04;62.19;101807.50;5051519;28;45478;-59
2022/12/17 15:22:31;;;;;;;;;51.25;37.50;;;;;0.62;62.64;101736.00;5031691;28;48364;-57
2022/12/17 15:24:56;;;;;;;;;44.00;34.50;;;;;1.05;62.88;101803.81;5051126;28;45751;-58
2022/12/17 15:27:22;;;;;;;;;25.50;25.50;;;;;1.02;62.50;101798.66;5050043;28;45359;-58
2022/12/17 15:29:47;;;;;;;;;35.50;29.00;;;;;0.96;62.35;101788.34;5051498;28;45432;-61
2022/12/17 15:32:18;;;;;;;;;43.50;35.50;;;;;0.93;62.44;101789.44;5050915;28;46010;-61
2022/12/17 15:34:43;;;;;;;;;36.50;32.25;;;;;0.92;62.73;101803.97;5039097;28;45417;-62
2022/12/17 15:37:09;;;;;;;;;36.50;34.25;;;;;0.92;62.44;101810.19;5048971;28;45429;-61
2022/12/17 15:39:35;;;;;;;;;42.25;32.50;;;;;0.91;62.07;101811.19;5029264;28;45708;-64
2022/12/17 15:44:44;;;;;;;;;36.25;29.75;;;;;0.87;62.88;101823.25;5031266;28;45329;-60
2022/12/17 15:47:10;;;;;;;;;39.75;33.50;;;;;0.85;62.96;101816.25;5030978;28;45697;-61
2022/12/17 15:49:35;;;;;;;;;45.25;36.00;;;;;0.83;62.52;101821.75;5038015;28;45422;-62
2022/12/17 15:52:01;;;;;;;;;36.00;33.25;;;;;0.82;63.18;101817.34;5030999;28;46351;-62
2022/12/17 15:54:26;;;;;;;;;37.75;34.75;;;;;0.77;63.03;101822.25;5029142;28;45531;-59
2022/12/17 15:56:53;;;;;;;;;42.75;31.50;;;;;0.75;63.10;101833.16;5031127;28;45843;-63
2022/12/17 15:59:18;;;;;;;;;44.25;34.25;;;;;0.76;62.63;101839.44;5029781;28;45484;-64
2022/12/17 16:01:44;;;;;;;;;38.75;31.00;;;;;0.76;63.26;101834.88;5029539;28;47089;-60
2022/12/17 16:04:09;;;;;;;;;44.25;36.25;;;;;0.74;62.96;101831.44;5030811;28;45782;-63
2022/12/17 16:06:35;;;;;;;;;43.25;32.75;;;;;0.74;63.29;101834.16;5041218;28;45453;-63
2022/12/17 16:09:00;;;;;;;;;44.00;38.00;;;;;0.75;62.92;101851.25;5029683;28;45457;-61
2022/12/17 16:11:26;;;;;;;;;37.75;33.50;;;;;0.75;62.96;101846.69;5029114;28;47462;-63
2022/12/17 16:13:54;;;;;;;;;43.75;40.25;;;;;0.74;63.85;101833.31;5013987;28;46035;-57
2022/12/17 16:16:21;;;;;;;;;49.50;37.75;;;;;0.60;63.07;101815.47;5024753;28;45468;-63
2022/12/17 16:18:46;;;;;;;;;46.25;38.25;;;;;0.63;63.08;101826.00;5029361;28;45847;-63
2022/12/17 16:21:12;;;;;;;;;40.25;35.50;;;;;0.69;63.13;101849.00;5012961;28;45850;-62
2022/12/17 16:23:37;;;;;;;;;44.25;36.50;;;;;0.66;63.59;101844.72;5028976;28;45498;-63
2022/12/17 16:26:04;;;;;;;;;41.75;37.50;;;;;0.64;63.62;101838.56;5029423;28;45734;-62
2022/12/17 16:28:30;;;;;;;;;46.00;34.50;;;;;0.61;63.05;101830.69;5046099;28;45861;-61
2022/12/17 16:31:02;;;;;;;;;41.25;33.25;;;;;0.32;62.80;101782.50;5028723;28;45702;-61
2022/12/17 16:33:35;;;;;;;;;45.75;31.25;;;;;0.65;63.06;101834.88;5018467;28;45582;-62
2022/12/17 16:36:01;;;;;;;;;39.00;31.25;;;;;0.63;62.92;101831.41;5029810;28;45426;-61
2022/12/17 16:38:26;;;;;;;;;59.25;42.75;;;;;0.61;62.91;101836.09;5027752;28;45536;-63
2022/12/17 16:40:56;;;;;;;;;36.50;28.75;;;;;0.27;63.37;101793.66;5028397;28;47615;-62
2022/12/17 16:43:21;;;;;;;;;46.00;39.50;;;;;0.28;63.42;101794.50;5011677;28;45515;-64
2022/12/17 16:45:48;;;;;;;;;43.75;31.50;;;;;0.37;62.67;101816.25;5028237;28;45801;-64
2022/12/17 16:48:14;;;;;;;;;42.75;34.50;;;;;0.55;62.99;101840.16;5029309;28;45469;-61
2022/12/17 16:50:40;;;;;;;;;44.75;34.50;;;;;0.51;63.47;101825.13;5027008;28;46052;-62
2022/12/17 16:53:05;;;;;;;;;43.00;37.00;;;;;0.51;63.34;101825.13;5029949;28;45424;-60
2022/12/17 16:55:31;;;;;;;;;46.50;37.75;;;;;0.56;63.39;101830.19;5030047;28;45380;-60
2022/12/17 16:57:56;;;;;;;;;42.25;36.25;;;;;0.56;63.60;101822.06;5030032;28;45682;-63
2022/12/17 17:00:22;;;;;;;;;39.75;34.00;;;;;0.50;63.17;101827.00;5029934;28;46515;-60
2022/12/17 17:02:48;;;;;;;;;43.75;37.75;;;;;0.32;63.41;101796.00;5028267;28;45778;-59
2022/12/17 17:05:14;;;;;;;;;51.00;39.00;;;;;0.47;63.54;101816.41;5030167;28;45506;-60
2022/12/17 17:07:39;;;;;;;;;52.50;43.00;;;;;0.50;62.81;101832.41;5028205;28;45390;-62
2022/12/17 17:10:05;;;;;;;;;41.25;34.00;;;;;0.37;62.29;101827.06;5029363;28;46559;-60
2022/12/17 17:12:30;;;;;;;;;41.75;31.00;;;;;0.39;62.70;101845.88;5029839;28;45434;-62
2022/12/17 17:14:56;;;;;;;;;36.25;32.00;;;;;0.33;62.79;101832.81;5000135;28;46065;-59
2022/12/17 17:17:22;;;;;;;;;36.50;33.00;;;;;0.35;62.69;101829.03;5025200;28;45392;-60
2022/12/17 17:19:47;;;;;;;;;42.50;34.75;;;;;0.37;63.20;101820.81;5030653;28;48666;-63
2022/12/17 17:22:13;;;;;;;;;38.25;35.00;;;;;-0.14;63.45;101750.78;5031502;28;45396;-61
2022/12/17 17:24:38;;;;;;;;;47.50;37.50;;;;;0.39;63.28;101840.47;5032367;28;45200;-61
2022/12/17 17:27:04;;;;;;;;;47.25;39.00;;;;;0.39;63.19;101835.06;5035795;28;45414;-60
2022/12/17 17:29:30;;;;;;;;;41.50;30.00;;;;;0.33;63.00;101828.31;5037589;28;46014;-60
2022/12/17 17:31:55;;;;;;;;;52.75;41.75;;;;;0.36;63.10;101830.75;5037070;28;45306;-61
2022/12/17 17:34:21;;;;;;;;;43.75;33.75;;;;;0.36;63.55;101835.28;5037703;28;45418;-61
2022/12/17 17:36:49;;;;;;;;;49.50;41.25;;;;;0.10;63.23;101806.59;5035987;28;45515;-62
2022/12/17 17:39:15;;;;;;;;;51.00;39.25;;;;;0.32;63.25;101856.25;5023951;28;45788;-64
2022/12/17 17:41:40;;;;;;;;;46.75;41.75;;;;;0.32;63.34;101853.56;5011185;28;46020;-65
2022/12/17 17:44:07;;;;;;;;;52.25;39.75;;;;;0.13;63.98;101825.28;5031882;28;45467;-60
2022/12/17 17:46:33;;;;;;;;;44.00;40.00;;;;;0.28;63.90;101854.78;5031328;28;45706;-61
2022/12/17 17:49:00;;;;;;;;;49.67;41.67;;;;;0.30;63.91;101855.53;5014671;28;46395;-59
2022/12/17 17:51:28;;;;;;;;;48.25;35.50;;;;;0.01;64.65;101817.22;5032321;28;45897;-58
2022/12/17 17:53:54;;;;;;;;;49.75;41.50;;;;;0.29;64.50;101855.63;5031664;28;45485;-59
2022/12/17 17:56:22;;;;;;;;;56.75;45.00;;;;;0.30;63.76;101843.84;5032599;28;45467;-61
2022/12/17 17:58:52;;;;;;;;;48.75;38.50;;;;;0.26;63.55;101848.63;5031218;28;46713;-63
2022/12/17 18:01:26;;;;;;;;;39.25;37.00;;;;;0.22;64.05;101839.06;5032036;28;45578;-63
2022/12/17 18:03:52;;;;;;;;;44.75;39.25;;;;;-0.03;64.52;101797.72;5031486;28;45379;-59
2022/12/17 18:06:18;;;;;;;;;48.25;39.50;;;;;0.20;64.06;101838.28;5031456;28;45853;-60
2022/12/17 18:08:43;;;;;;;;;41.25;38.25;;;;;0.17;64.42;101828.59;5032447;28;45644;-61
2022/12/17 18:11:10;;;;;;;;;57.67;48.33;;;;;-0.07;64.47;101783.59;5011970;28;45468;-60
2022/12/17 18:16:28;;;;;;;;;58.33;46.67;;;;;0.16;64.70;101807.13;5011213;28;45440;-59
2022/12/17 18:18:55;;;;;;;;;54.00;43.00;;;;;0.23;64.88;101819.16;5026669;28;46541;-56
2022/12/17 18:21:21;;;;;;;;;52.00;44.50;;;;;-0.47;64.57;101705.66;5030788;28;45487;-59
2022/12/17 18:23:46;;;;;;;;;57.00;45.00;;;;;0.23;64.67;101821.88;5031111;28;45408;-61
2022/12/17 18:26:16;;;;;;;;;59.00;42.25;;;;;0.20;65.01;101830.19;5016108;28;45577;-59
2022/12/17 18:28:42;;;;;;;;;59.33;44.00;;;;;0.20;64.62;101836.47;5001624;28;45456;-57
2022/12/17 18:31:10;;;;;;;;;53.67;45.67;;;;;0.15;65.23;101833.25;5030863;28;45612;-60
2022/12/17 18:33:36;;;;;;;;;63.33;47.33;;;;;0.16;64.86;101828.72;5030726;28;45509;-65
2022/12/17 18:36:07;;;;;;;;;56.00;44.33;;;;;0.13;64.85;101822.59;5034645;28;45477;-62
2022/12/17 18:38:33;;;;;;;;;51.33;40.67;;;;;0.11;65.35;101827.22;5030784;28;46134;-56
2022/12/17 18:43:21;;;;;;;;;63.50;45.25;;;;;0.08;65.87;101840.97;5022128;28;45534;-56
2022/12/17 18:43:50;;;;;;;;;57.75;45.25;;;;;0.11;65.28;101851.50;5036258;28;45706;-56
2022/12/17 18:46:15;;;;;;;;;57.25;46.50;;;;;0.11;65.40;101853.38;5029319;28;45965;-54
2022/12/17 18:48:41;;;;;;;;;59.50;47.00;;;;;0.08;65.55;101851.75;5030608;28;45534;-61
2022/12/17 18:51:06;;;;;;;;;59.25;48.00;;;;;0.03;65.58;101856.63;5030361;28;45374;-61
2022/12/17 18:53:32;;;;;;;;;66.00;49.25;;;;;0.04;65.80;101863.75;5028102;28;45793;-64
2022/12/17 18:56:00;;;;;;;;;64.33;50.67;;;;;0.04;66.37;101871.00;5029628;28;45543;-62
2022/12/17 18:58:25;;;;;;;;;68.33;50.67;;;;;0.04;65.74;101877.25;5012570;28;46127;-59
2022/12/17 19:00:51;;;;;;;;;55.00;47.00;;;;;0.03;66.12;101877.38;4998535;27;45467;-61
2022/12/17 19:03:17;;;;;;;;;54.00;48.33;;;;;-0.04;65.01;101864.31;5064984;28;45421;-59
2022/12/17 19:05:42;;;;;;;;;58.67;48.33;;;;;0.02;65.97;101868.41;5049504;28;45447;-59
2022/12/17 19:08:08;;;;;;;;;56.00;45.67;;;;;0.02;66.18;101873.81;5048096;28;45823;-61
2022/12/17 19:10:34;;;;;;;;;71.00;54.00;;;;;-0.13;65.38;101856.91;5040575;27;45409;-63
2022/12/17 19:13:00;;;;;;;;;61.33;47.67;;;;;-0.02;65.38;101867.78;5050043;28;45640;-61
2022/12/17 19:15:25;;;;;;;;;56.33;46.00;;;;;-0.04;65.20;101872.41;5049212;28;45709;-62
2022/12/17 19:17:51;;;;;;;;;65.67;44.33;;;;;-0.04;65.33;101871.56;5043535;28;45399;-61
2022/12/17 19:20:17;;;;;;;;;56.00;46.33;;;;;-0.08;65.06;101864.66;5050502;28;45428;-60
2022/12/17 19:22:43;;;;;;;;;61.67;43.33;;;;;-0.14;65.11;101866.00;5050145;28;45779;-60
2022/12/17 19:25:09;;;;;;;;;64.67;46.67;;;;;-0.10;64.52;101878.31;5049276;28;45691;-61
2022/12/17 19:27:35;;;;;;;;;58.00;47.00;;;;;-0.34;64.59;101845.88;5023904;28;46544;-61
2022/12/17 19:30:01;;;;;;;;;64.67;50.00;;;;;-0.12;65.09;101868.59;5042445;28;45914;-60
2022/12/17 19:32:26;;;;;;;;;57.67;45.67;;;;;-0.13;64.40;101865.03;5028630;28;45540;-61
2022/12/17 19:34:52;;;;;;;;;61.33;50.00;;;;;-0.18;64.99;101859.09;5030972;28;45699;-58
2022/12/17 19:37:18;;;;;;;;;63.67;49.67;;;;;-0.12;64.17;101871.28;5049046;28;46217;-60
2022/12/17 19:39:44;;;;;;;;;66.33;49.00;;;;;-0.26;64.59;101850.72;5050145;28;45519;-57
2022/12/17 19:42:23;;;;;;;;;64.67;49.33;;;;;-0.48;64.70;101822.63;5021206;28;45573;-57
2022/12/17 19:44:52;;;;;;;;;63.33;49.00;;;;;-0.19;65.02;101868.16;5017149;28;45493;-61
2022/12/17 19:47:18;;;;;;;;;66.33;53.00;;;;;-0.17;64.65;101866.22;5012870;28;47666;-59
2022/12/17 19:49:44;;;;;;;;;67.33;54.33;;;;;-0.16;64.80;101867.97;5028028;28;45432;-59
2022/12/17 19:52:10;;;;;;;;;68.33;51.33;;;;;-0.19;65.29;101863.66;5046272;28;45401;-59
2022/12/17 19:54:35;;;;;;;;;70.33;54.33;;;;;-0.16;64.90;101867.97;5034572;28;45515;-61
2022/12/17 19:57:01;;;;;;;;;66.33;51.67;;;;;-0.17;64.91;101858.13;5030791;28;46845;-63
2022/12/17 19:59:27;;;;;;;;;46.00;36.33;;;;;-0.16;65.21;101851.75;5029546;28;45342;-60
2022/12/17 20:01:53;;;;;;;;;65.33;51.67;;;;;-0.16;65.02;101862.56;5029321;28;45432;-61
2022/12/17 20:04:19;;;;;;;;;54.00;45.33;;;;;-0.16;64.35;101878.75;5030791;28;45646;-60
2022/12/17 20:06:44;;;;;;;;;63.33;51.00;;;;;-0.49;64.28;101834.41;5038528;28;45806;-61
2022/12/17 20:09:10;;;;;;;;;64.00;47.33;;;;;-0.17;64.81;101891.38;5029484;28;45992;-61
2022/12/17 20:11:35;;;;;;;;;70.00;47.00;;;;;-0.30;64.26;101874.38;5029200;28;45514;-60
2022/12/17 20:14:10;;;;;;;;;53.33;40.67;;;;;-0.18;64.65;101903.16;5029053;28;45462;-60
2022/12/17 20:16:37;;;;;;;;;64.00;47.33;;;;;-0.21;64.54;101900.66;5030364;28;46123;-60
2022/12/17 20:19:04;;;;;;;;;51.67;46.00;;;;;-0.24;64.10;101886.53;5033843;28;45602;-59
2022/12/17 20:21:29;;;;;;;;;61.00;50.00;;;;;-0.29;64.45;101895.84;5045771;28;45538;-55
2022/12/17 20:23:55;;;;;;;;;52.67;45.67;;;;;-0.26;64.62;101900.16;5041358;28;45375;-60
2022/12/17 20:26:20;;;;;;;;;59.00;46.33;;;;;-0.25;64.60;101909.97;5050395;28;45989;-59
2022/12/17 20:28:46;;;;;;;;;66.33;51.33;;;;;-0.27;64.00;101909.19;5050506;28;46005;-58
2022/12/17 20:31:12;;;;;;;;;54.67;42.00;;;;;-0.25;64.68;101911.78;5048999;28;46370;-60
2022/12/17 20:33:37;;;;;;;;;67.67;51.00;;;;;-0.36;64.32;101899.97;5049297;28;45564;-61
2022/12/17 20:36:04;;;;;;;;;69.00;51.33;;;;;-0.33;64.60;101913.22;5049423;28;46472;-63
2022/12/17 20:38:29;;;;;;;;;64.00;46.67;;;;;-0.45;64.05;101901.50;5050228;28;45503;-62
2022/12/17 20:40:54;;;;;;;;;58.00;48.00;;;;;-0.36;64.05;101910.75;5022472;28;45424;-61
2022/12/17 20:43:20;;;;;;;;;57.00;45.67;;;;;-0.36;64.45;101917.97;5043379;28;45798;-60
2022/12/17 20:45:49;;;;;;;;;60.33;47.00;;;;;-0.46;64.54;101913.25;5045118;28;45564;-60
2022/12/17 20:48:15;;;;;;;;;60.00;47.33;;;;;-0.47;64.18;101916.91;5014190;28;45599;-61
2022/12/17 20:50:41;;;;;;;;;55.67;47.33;;;;;-0.48;64.49;101923.28;5022783;28;45562;-59
2022/12/17 20:53:07;;;;;;;;;54.00;44.33;;;;;-0.52;64.52;101923.63;5036619;28;45594;-61
2022/12/17 20:55:32;;;;;;;;;45.33;42.33;;;;;-0.50;64.20;101919.84;5050753;28;45406;-61
2022/12/17 20:57:58;;;;;;;;;49.00;43.00;;;;;-0.57;64.43;101916.69;5040779;28;45634;-62
2022/12/17 21:00:23;;;;;;;;;45.75;42.75;;;;;-0.83;64.63;101880.81;5033582;28;45679;-62
2022/12/17 21:02:49;;;;;;;;;59.00;45.00;;;;;-0.51;64.57;101936.13;5036494;28;45377;-59
2022/12/17 21:05:16;;;;;;;;;55.00;46.33;;;;;-0.52;64.33;101929.88;5036439;28;46111;-60
2022/12/17 21:07:43;;;;;;;;;64.67;47.33;;;;;-0.56;64.11;101921.16;5072015;28;45790;-61
2022/12/17 21:10:08;;;;;;;;;51.67;42.67;;;;;-0.60;64.57;101913.38;5057016;28;45478;-61
2022/12/17 21:15:27;;;;;;;;;58.67;47.33;;;;;-0.69;64.32;101904.13;5062473;28;45662;-60
2022/12/17 21:17:52;;;;;;;;;60.00;48.33;;;;;-0.64;64.63;101907.31;5055201;28;45911;-60
2022/12/17 21:20:17;;;;;;;;;56.67;47.00;;;;;-0.62;64.45;101915.31;5056181;28;45325;-62
2022/12/17 21:22:43;;;;;;;;;61.33;48.33;;;;;-0.56;64.93;101931.94;5055130;28;45856;-60
2022/12/17 21:25:09;;;;;;;;;60.33;47.33;;;;;-0.60;64.57;101911.53;5056483;28;46319;-61
2022/12/17 21:27:34;;;;;;;;;62.33;48.33;;;;;-0.54;64.17;101915.63;5055397;28;45424;-60
2022/12/17 21:30:00;;;;;;;;;70.33;52.00;;;;;-0.54;65.05;101910.22;5063170;28;45367;-60
2022/12/17 21:32:25;;;;;;;;;58.00;48.67;;;;;-0.70;64.79;101892.47;5036105;28;45485;-60
2022/12/17 21:34:51;;;;;;;;;64.33;50.00;;;;;-0.64;64.67;101911.88;5035336;28;45939;-61
2022/12/17 21:37:16;;;;;;;;;56.67;49.00;;;;;-0.58;64.97;101911.44;5035758;28;45460;-60
2022/12/17 21:39:42;;;;;;;;;63.33;49.00;;;;;-0.62;64.90;101905.41;5035696;28;45424;-60
2022/12/17 21:44:52;;;;;;;;;45.33;39.33;;;;;-0.71;64.55;101900.66;5035877;28;45759;-60
2022/12/17 21:47:18;;;;;;;;;60.00;45.00;;;;;-0.72;64.33;101899.81;5035707;28;45425;-60
2022/12/17 21:49:43;;;;;;;;;61.33;47.33;;;;;-1.43;64.35;101789.78;5035970;28;45469;-60
2022/12/17 21:52:09;;;;;;;;;65.33;51.00;;;;;-0.76;64.91;101906.38;5035894;28;45606;-59
2022/12/17 21:54:34;;;;;;;;;53.00;45.67;;;;;-0.76;64.84;101898.28;5003543;27;46607;-59
2022/12/17 21:57:00;;;;;;;;;65.00;47.67;;;;;-0.81;65.12;101881.56;5033054;28;45899;-60
2022/12/17 21:59:26;;;;;;;;;64.00;47.33;;;;;-0.99;64.32;101852.28;5016874;28;45576;-61
2022/12/17 22:01:51;;;;;;;;;57.00;45.33;;;;;-0.87;64.71;101888.28;5042167;28;45417;-62
2022/12/17 22:04:17;;;;;;;;;46.00;41.33;;;;;-0.88;64.94;101875.75;5054322;28;45792;-61
2022/12/17 22:06:43;;;;;;;;;58.00;47.33;;;;;-0.98;64.75;101856.69;5055408;28;45397;-60
2022/12/17 22:09:09;;;;;;;;;68.33;46.67;;;;;-0.91;64.97;101872.44;5056059;28;45431;-61
2022/12/17 22:11:34;;;;;;;;;56.00;45.33;;;;;-0.95;64.77;101882.56;5054015;28;45412;-60
2022/12/17 22:14:08;;;;;;;;;55.67;45.67;;;;;-1.59;65.14;101792.66;5055579;28;46249;-60
2022/12/17 22:16:41;;;;;;;;;56.00;42.33;;;;;-1.10;65.00;101868.31;5055333;28;45419;-60
2022/12/17 22:19:08;;;;;;;;;48.25;42.50;;;;;-1.08;65.56;101865.53;5054178;28;45407;-60
2022/12/17 22:21:34;;;;;;;;;60.33;44.00;;;;;-1.08;64.51;101866.38;5055490;28;45258;-60
2022/12/17 22:24:00;;;;;;;;;51.00;44.67;;;;;-1.06;65.82;101879.75;5055478;28;45617;-61
2022/12/17 22:26:26;;;;;;;;;56.33;46.00;;;;;-1.06;65.37;101877.06;5054132;28;45369;-61
2022/12/17 22:28:52;;;;;;;;;62.00;48.33;;;;;-1.19;65.92;101867.13;5055405;28;45352;-60
2022/12/17 22:34:03;;;;;;;;;51.33;44.00;;;;;-1.05;65.73;101876.97;5053142;28;45545;-59
2022/12/17 22:36:30;;;;;;;;;53.33;43.67;;;;;-1.27;65.16;101831.78;5055669;28;45364;-60
2022/12/17 22:38:57;;;;;;;;;49.33;42.33;;;;;-1.05;65.17;101865.31;5054753;28;45458;-60
2022/12/17 22:44:06;;;;;;;;;54.00;45.00;;;;;-1.79;65.85;101748.25;5055008;28;45885;-62
2022/12/17 22:46:32;;;;;;;;;55.33;45.00;;;;;-1.38;65.52;101813.69;5055390;28;45416;-62
2022/12/17 22:48:58;;;;;;;;;51.67;41.33;;;;;-1.09;65.72;101859.25;5054694;28;45464;-62
2022/12/17 22:51:24;;;;;;;;;57.33;45.67;;;;;-1.08;65.57;101866.38;5055324;28;45431;-61
2022/12/17 22:53:49;;;;;;;;;63.33;44.67;;;;;-1.12;65.80;101871.13;5053623;28;45976;-56
2022/12/17 22:56:15;;;;;;;;;62.33;48.00;;;;;-1.15;65.72;101860.56;5053426;28;45372;-55
2022/12/17 22:58:40;;;;;;;;;59.67;44.33;;;;;-1.16;65.86;101857.97;5055212;28;45408;-60
2022/12/17 23:01:06;;;;;;;;;62.00;50.33;;;;;-1.39;65.58;101828.13;5054888;28;45508;-59
2022/12/17 23:03:32;;;;;;;;;61.67;44.33;;;;;-1.24;66.06;101851.28;5036701;28;47443;-59
2022/12/17 23:06:08;;;;;;;;;55.00;44.67;;;;;-1.17;65.85;101851.72;5054757;28;45469;-60
2022/12/17 23:08:34;;;;;;;;;68.33;48.33;;;;;-1.16;65.70;101847.19;5024666;28;46093;-56
2022/12/17 23:11:07;;;;;;;;;57.33;48.00;;;;;-1.19;65.68;101848.28;5054800;28;45453;-55
2022/12/17 23:13:36;;;;;;;;;58.67;47.00;;;;;-1.25;65.54;101846.88;5055181;28;45665;-60
2022/12/17 23:16:02;;;;;;;;;59.33;45.67;;;;;-1.30;65.69;101838.25;5055875;28;45372;-60
2022/12/17 23:18:27;;;;;;;;;53.33;41.00;;;;;-1.22;65.66;101843.09;5037606;28;45457;-55
2022/12/17 23:20:53;;;;;;;;;58.33;44.67;;;;;-1.28;65.47;101836.28;5014711;28;46170;-58
2022/12/17 23:23:18;;;;;;;;;60.33;47.67;;;;;-1.67;66.02;101785.09;5048492;28;46096;-55
2022/12/17 23:25:44;;;;;;;;;54.67;42.67;;;;;-1.47;66.21;101841.25;5047867;28;45541;-57
2022/12/17 23:28:09;;;;;;;;;64.00;49.67;;;;;-1.50;66.23;101837.78;5031296;28;45408;-54
2022/12/17 23:30:36;;;;;;;;;63.00;47.33;;;;;-1.51;66.54;101828.00;5013419;28;45459;-59
2022/12/17 23:33:02;;;;;;;;;55.00;47.67;;;;;-1.56;66.56;101827.44;5029717;28;45521;-60
2022/12/17 23:35:27;;;;;;;;;60.33;44.33;;;;;-1.51;66.54;101832.50;5034831;28;45478;-61
2022/12/17 23:37:53;;;;;;;;;57.00;43.67;;;;;-1.48;66.64;101834.13;5030980;28;45837;-56
2022/12/17 23:40:19;;;;;;;;;51.67;42.67;;;;;-1.54;66.78;101819.28;5066914;28;45432;-57
2022/12/17 23:42:44;;;;;;;;;57.00;45.67;;;;;-1.51;66.38;101828.00;5049360;28;45880;-53
2022/12/17 23:45:10;;;;;;;;;64.00;48.67;;;;;-1.51;66.45;101833.38;5050023;28;45493;-57
2022/12/17 23:47:36;;;;;;;;;58.33;45.67;;;;;-1.50;66.41;101836.91;5043712;28;45504;-58
2022/12/17 23:50:02;;;;;;;;;67.67;50.33;;;;;-1.51;66.17;101833.38;5031184;28;45530;-59
2022/12/17 23:52:28;;;;;;;;;63.67;52.00;;;;;-2.15;66.25;101726.47;5029194;28;46184;-60
2022/12/17 23:54:53;;;;;;;;;56.33;45.67;;;;;-2.30;65.57;101708.69;5029571;28;45441;-59
2022/12/17 23:57:19;;;;;;;;;66.67;49.33;;;;;-1.50;66.12;101837.78;5030949;28;45388;-55
2022/12/17 23:59:44;;;;;;;;;39.00;32.67;;;;;-1.51;66.13;101836.06;5034148;28;45395;-56
